EST,Max TemperatureF,Mean TemperatureF,Min TemperatureF,Max Dew PointF,MeanDew PointF,Min DewpointF,Max Humidity, Mean Humidity, Min Humidity, Max Sea Level PressureIn, Mean Sea Level PressureIn, Min Sea Level PressureIn, Max VisibilityMiles, Mean VisibilityMiles, Min VisibilityMiles, Max Wind SpeedMPH, Mean Wind SpeedMPH, Max Gust SpeedMPH,PrecipitationIn, CloudCover, Events, WindDirDegrees
2013-1-1,39,34,29,29,26,16,75,64,53,30.05,29.97,29.91,10,10,10,14,7,18,0.00,6,,292
2013-1-2,33,29,25,16,15,14,68,58,47,30.23,30.12,30.02,10,10,10,20,7,25,0.00,0,,294
2013-1-3,34,27,20,21,16,13,77,62,47,30.25,30.18,30.13,10,10,10,13,4,18,0.00,1,,263
2013-1-4,39,36,32,23,21,19,61,57,52,30.15,30.10,30.04,10,10,10,22,10,28,0.00,4,,271
2013-1-5,41,35,28,24,21,18,78,62,45,30.35,30.27,30.10,10,10,8,23,8,30,0.00,1,,285
2013-1-6,47,39,30,31,28,25,89,67,45,30.21,30.10,30.01,10,8,4,15,3,20,T,7,Snow,239
2013-1-7,43,36,28,30,27,23,79,67,55,30.42,30.33,30.13,10,10,9,12,6,,0.00,5,,280
2013-1-8,47,35,22,30,26,20,92,73,53,30.43,30.40,30.38,10,8,5,10,1,14,0.00,0,,277
2013-1-9,43,33,23,37,29,21,96,81,65,30.40,30.32,30.21,10,5,2,10,2,14,T,2,Rain,281
2013-1-10,49,42,34,28,27,25,70,56,42,30.57,30.51,30.35,10,10,10,15,6,21,0.00,0,,306
2013-1-11,45,39,32,41,36,27,93,79,64,30.52,30.25,30.10,10,6,1,12,2,15,0.27,7,Rain,43
2013-1-12,51,46,41,47,43,39,100,90,80,30.19,30.14,30.09,8,2,0,6,2,7,0.00,8,Fog,301
2013-1-13,49,47,44,47,45,43,100,96,92,30.15,30.07,29.99,4,1,0,9,2,13,0.01,8,Fog,161
2013-1-14,54,48,41,50,44,33,100,75,50,30.31,30.08,29.92,10,4,0,20,5,23,0.11,8,Fog-Rain,305
2013-1-15,42,38,34,37,30,25,96,78,59,30.37,30.29,30.22,10,10,3,13,4,16,0.24,8,Rain,28
2013-1-16,37,35,33,34,33,30,100,93,85,30.18,30.02,29.86,10,4,2,17,2,20,0.52,7,Rain,354
2013-1-17,41,38,35,34,29,28,92,76,60,30.13,30.07,29.98,10,10,9,20,7,23,0.00,1,,301
2013-1-18,36,31,25,28,16,8,75,56,36,30.49,30.34,30.07,10,10,2,13,9,16,T,4,Snow,290
2013-1-19,51,39,26,27,24,13,63,51,38,30.39,30.17,29.92,10,10,10,18,9,23,0.00,1,,185
2013-1-20,53,40,27,29,19,11,64,43,21,30.10,29.90,29.78,10,10,10,30,12,39,0.00,0,,280
2013-1-21,32,27,22,23,14,9,75,59,43,30.13,30.00,29.89,10,9,2,23,7,31,T,5,Snow,278
2013-1-22,24,18,11,10,-2,-6,62,48,34,30.28,30.14,29.94,10,10,10,26,16,33,0.00,2,,289
2013-1-23,20,15,9,6,0,-3,70,55,39,30.30,30.25,30.18,10,10,10,20,7,26,0.00,3,,285
2013-1-24,25,19,13,8,3,-3,80,56,32,30.49,30.32,30.14,10,10,10,26,10,33,0.00,3,,323
2013-1-25,22,17,11,16,8,-1,92,67,41,30.50,30.24,30.07,10,6,1,13,3,15,0.04,5,Snow,228
2013-1-26,27,20,12,12,10,8,92,71,50,30.44,30.24,30.08,10,9,7,17,7,21,0.00,4,,294
2013-1-27,36,23,10,17,13,7,84,61,38,30.59,30.51,30.44,10,10,8,13,2,15,0.00,0,,305
2013-1-28,35,29,23,34,29,17,100,87,74,30.50,30.22,30.03,9,3,1,13,3,17,0.16,8,Rain-Snow,176
2013-1-29,49,42,34,45,39,34,100,92,83,30.14,30.07,30.02,6,2,1,6,1,7,0.00,6,,336
2013-1-30,67,53,38,58,49,39,100,87,73,30.01,29.70,29.31,10,3,0,28,6,37,1.11,8,Fog-Rain,209
2013-1-31,58,43,28,56,34,11,100,69,38,29.85,29.42,29.09,10,8,2,40,16,49,1.06,7,Rain,260